Time;durP1;ratioP1;P1;durP2;ratioP2;P2;SDS_P1;SDS_P2;PMS_P1;PMS_P2;Temp;Humidity;BMP_temperature;BMP_pressure;BME280_temperature;BME280_humidity;BME280_pressure;Samples;Min_cycle;Max_cycle;Signal;HPM_P1;HPM_P2
2022/02/14 00:01:15;;;;;;;;;3.25;3.25;;;;;20.73;34.74;99674.88;5078049;27;51166;-48
2022/02/14 00:03:41;;;;;;;;;4.25;3.75;;;;;20.72;34.91;99667.69;5077155;27;51088;-47
2022/02/14 00:06:06;;;;;;;;;5.00;3.25;;;;;20.72;35.37;99673.19;5077450;27;51172;-50
2022/02/14 00:08:32;;;;;;;;;3.00;3.00;;;;;20.71;34.94;99655.03;5077482;27;51203;-50
2022/02/14 00:10:57;;;;;;;;;2.25;2.25;;;;;20.69;34.85;99651.69;5077284;27;51281;-46
2022/02/14 00:13:22;;;;;;;;;5.25;3.00;;;;;20.69;35.11;99651.69;5077265;27;51961;-44
2022/02/14 00:15:51;;;;;;;;;4.25;3.00;;;;;20.67;34.85;99645.63;5077233;27;51198;-44
2022/02/14 00:18:17;;;;;;;;;3.25;3.25;;;;;20.65;34.94;99642.28;5077278;27;51166;-44
2022/02/14 00:20:42;;;;;;;;;4.00;4.00;;;;;20.64;35.11;99643.38;5077333;27;51218;-44
2022/02/14 00:23:07;;;;;;;;;2.50;2.50;;;;;20.63;35.31;99632.59;5076406;27;52754;-44
2022/02/14 00:25:34;;;;;;;;;5.00;2.00;;;;;20.62;34.92;99637.28;5077114;27;51173;-44
2022/02/14 00:27:59;;;;;;;;;3.00;3.00;;;;;20.62;34.84;99633.69;5077676;27;51033;-44
2022/02/14 00:30:25;;;;;;;;;3.00;3.00;;;;;20.61;35.08;99638.34;5076185;27;51248;-44
2022/02/14 00:32:50;;;;;;;;;6.25;4.75;;;;;20.60;35.07;99636.69;5076879;27;51920;-48
2022/02/14 00:35:16;;;;;;;;;3.00;2.50;;;;;20.58;35.22;99636.13;5076943;27;51081;-46
2022/02/14 00:37:42;;;;;;;;;3.00;3.00;;;;;20.58;35.07;99635.28;5077211;27;51207;-44
2022/02/14 00:40:09;;;;;;;;;2.25;2.25;;;;;20.56;35.32;99635.53;5077372;27;50990;-48
2022/02/14 00:42:34;;;;;;;;;6.00;3.25;;;;;20.56;35.25;99635.53;5076752;27;51854;-49
2022/02/14 00:45:00;;;;;;;;;3.00;3.00;;;;;20.54;35.50;99626.72;5077030;27;51175;-48
2022/02/14 00:47:25;;;;;;;;;4.75;2.00;;;;;20.54;35.00;99615.72;5076943;27;51128;-44
2022/02/14 00:49:51;;;;;;;;;2.25;2.25;;;;;20.53;35.40;99633.31;5076942;27;51124;-44
2022/02/14 00:52:16;;;;;;;;;4.75;3.00;;;;;20.53;35.14;99618.69;5076779;27;51992;-48
2022/02/14 00:54:43;;;;;;;;;5.00;3.00;;;;;20.52;35.18;99617.03;5076909;27;51243;-44
2022/02/14 00:57:09;;;;;;;;;2.75;2.75;;;;;20.51;35.23;99605.19;5075871;27;51353;-45
2022/02/14 00:59:34;;;;;;;;;3.00;2.00;;;;;20.51;35.22;99607.09;5092003;27;51185;-46
2022/02/14 01:02:00;;;;;;;;;2.25;2.25;;;;;20.50;35.34;99608.19;5076523;27;51130;-45
2022/02/14 01:04:25;;;;;;;;;3.50;2.00;;;;;20.49;35.31;99609.28;5076480;27;51168;-48
2022/02/14 01:06:51;;;;;;;;;4.00;2.75;;;;;20.47;35.43;99606.78;5076609;28;51132;-45
2022/02/14 01:09:16;;;;;;;;;2.00;2.00;;;;;20.46;34.96;99605.97;5077049;27;51502;-44
2022/02/14 01:11:42;;;;;;;;;3.00;3.00;;;;;20.45;35.32;99595.22;5076811;27;52629;-45
2022/02/14 01:14:07;;;;;;;;;4.75;2.25;;;;;20.44;35.25;99599.88;5076590;27;51163;-48
2022/02/14 01:16:33;;;;;;;;;2.50;2.00;;;;;20.44;35.55;99599.06;5076834;27;51348;-47
2022/02/14 01:18:59;;;;;;;;;3.00;3.00;;;;;20.43;35.11;99598.22;5075805;28;51254;-45
2022/02/14 01:21:24;;;;;;;;;3.25;3.00;;;;;20.43;35.34;99592.72;5073081;27;51094;-49
2022/02/14 01:23:50;;;;;;;;;2.75;2.75;;;;;20.42;35.16;99598.41;5074780;28;51023;-47
2022/02/14 01:26:15;;;;;;;;;3.00;3.00;;;;;20.41;35.49;99594.00;5076447;27;51039;-49
2022/02/14 01:28:40;;;;;;;;;2.00;2.00;;;;;20.40;35.40;99578.59;5076883;27;51351;-44
2022/02/14 01:31:06;;;;;;;;;2.50;2.50;;;;;20.39;35.28;99585.16;5076346;27;50995;-50
2022/02/14 01:33:31;;;;;;;;;2.00;2.00;;;;;20.39;35.04;99588.75;5076129;27;51016;-45
2022/02/14 01:35:56;;;;;;;;;2.00;2.00;;;;;20.37;35.35;99577.19;5076266;27;51349;-47
2022/02/14 01:38:22;;;;;;;;;2.75;2.00;;;;;20.36;35.07;99581.00;5076638;27;50961;-45
2022/02/14 01:40:47;;;;;;;;;2.00;2.00;;;;;20.36;35.25;99569.19;5076142;27;50882;-46
2022/02/14 01:43:15;;;;;;;;;3.50;3.00;;;;;20.35;35.32;99565.59;5076164;27;51404;-45
2022/02/14 01:45:42;;;;;;;;;2.25;2.00;;;;;20.34;35.54;99574.94;5076394;27;51109;-43
2022/02/14 01:48:08;;;;;;;;;4.75;2.50;;;;;20.34;35.38;99558.44;5076445;27;51452;-48
2022/02/14 01:50:34;;;;;;;;;1.00;1.00;;;;;20.34;35.39;99565.84;5074900;27;51987;-49
2022/02/14 01:52:59;;;;;;;;;4.25;4.00;;;;;20.33;35.44;99561.44;5076426;28;51378;-46
2022/02/14 01:55:24;;;;;;;;;3.00;2.00;;;;;20.32;35.46;99549.63;5076163;27;51012;-46
2022/02/14 01:57:50;;;;;;;;;3.00;3.00;;;;;20.32;35.53;99557.00;5076055;27;50953;-48
2022/02/14 02:00:17;;;;;;;;;2.50;2.50;;;;;20.31;35.31;99552.59;5075640;27;51679;-49
2022/02/14 02:02:44;;;;;;;;;2.00;2.00;;;;;20.30;35.00;99560.00;5075832;27;51044;-49
2022/02/14 02:05:09;;;;;;;;;1.25;1.25;;;;;20.29;35.25;99558.34;5073139;28;51343;-45
2022/02/14 02:07:35;;;;;;;;;2.00;2.00;;;;;20.29;35.17;99550.09;5075680;27;50966;-46
2022/02/14 02:10:01;;;;;;;;;4.50;2.75;;;;;20.29;35.18;99543.78;5076098;27;51161;-49
2022/02/14 02:12:26;;;;;;;;;4.50;2.25;;;;;20.28;35.72;99556.69;5075741;28;51099;-46
2022/02/14 02:15:02;;;;;;;;;3.00;3.00;;;;;20.29;35.20;99549.25;5075778;27;51187;-43
2022/02/14 02:17:30;;;;;;;;;2.25;2.25;;;;;20.28;35.49;99553.09;5070493;27;51282;-51
2022/02/14 02:19:55;;;;;;;;;2.50;2.50;;;;;20.27;35.34;99534.94;5075380;27;51091;-46
2022/02/14 02:22:21;;;;;;;;;3.00;3.00;;;;;20.26;35.71;99538.78;5075086;27;51602;-45
2022/02/14 02:24:52;;;;;;;;;2.75;2.00;;;;;20.26;35.64;99538.78;5075966;27;51086;-47
2022/02/14 02:27:21;;;;;;;;;1.00;1.00;;;;;20.24;35.48;99536.28;5075601;27;51157;-45
2022/02/14 02:29:47;;;;;;;;;1.75;1.75;;;;;20.23;35.50;99534.63;5075388;27;51805;-48
2022/02/14 02:32:13;;;;;;;;;1.50;1.50;;;;;20.24;35.42;99529.97;5074098;28;51209;-46
2022/02/14 02:34:41;;;;;;;;;2.00;2.00;;;;;20.23;35.41;99528.28;5075023;28;51102;-45
2022/02/14 02:37:09;;;;;;;;;2.00;2.00;;;;;20.24;35.33;99532.72;5075911;27;51248;-43
2022/02/14 02:39:35;;;;;;;;;1.25;1.00;;;;;20.22;35.74;99543.97;5074735;28;52198;-46
2022/02/14 02:42:03;;;;;;;;;3.50;2.00;;;;;20.22;35.83;99535.72;5075286;28;51151;-47
2022/02/14 02:44:29;;;;;;;;;2.00;2.00;;;;;20.21;35.58;99535.94;5075616;27;51238;-48
2022/02/14 02:46:55;;;;;;;;;2.75;1.25;;;;;20.22;35.68;99523.84;5075598;27;51305;-44
2022/02/14 02:49:22;;;;;;;;;1.50;1.50;;;;;20.22;35.67;99523.84;5074910;27;51696;-48
2022/02/14 02:51:50;;;;;;;;;2.00;1.50;;;;;20.21;35.50;99522.19;5075156;28;51120;-44
2022/02/14 02:54:17;;;;;;;;;2.00;2.00;;;;;20.19;35.48;99534.28;5074827;27;51096;-48
2022/02/14 02:56:44;;;;;;;;;2.50;2.00;;;;;20.19;35.47;99533.44;5075013;27;51143;-48
2022/02/14 02:59:10;;;;;;;;;1.25;1.25;;;;;20.18;35.95;99540.03;5075131;27;51887;-48
2022/02/14 03:01:37;;;;;;;;;1.50;1.50;;;;;20.16;35.72;99540.28;5066909;28;51498;-43
2022/02/14 03:04:04;;;;;;;;;1.00;1.00;;;;;20.17;35.65;99527.38;5075178;27;51137;-44
2022/02/14 03:06:30;;;;;;;;;4.25;2.00;;;;;20.16;35.39;99526.53;5073830;27;51006;-44
2022/02/14 03:08:56;;;;;;;;;1.75;1.75;;;;;20.15;35.57;99524.03;5074917;27;51970;-48
2022/02/14 03:11:22;;;;;;;;;2.50;1.75;;;;;20.14;35.49;99520.47;5074595;27;51100;-44
2022/02/14 03:13:48;;;;;;;;;1.75;1.75;;;;;20.14;35.73;99505.88;5075316;27;51036;-48
2022/02/14 03:16:14;;;;;;;;;1.50;1.50;;;;;20.13;35.46;99510.56;5074882;27;51957;-44
2022/02/14 03:18:40;;;;;;;;;2.00;2.00;;;;;20.12;35.82;99522.63;5074491;27;51898;-48
2022/02/14 03:21:06;;;;;;;;;1.00;1.00;;;;;20.12;35.63;99514.41;5074831;27;51103;-44
2022/02/14 03:23:32;;;;;;;;;3.00;2.75;;;;;20.11;35.78;99515.47;5073819;27;51171;-44
2022/02/14 03:25:57;;;;;;;;;1.25;1.25;;;;;20.10;35.79;99522.03;5074120;27;51152;-47
2022/02/14 03:28:23;;;;;;;;;1.75;1.75;;;;;20.09;35.83;99527.78;5074419;27;51721;-43
2022/02/14 03:30:48;;;;;;;;;2.50;1.50;;;;;20.09;35.71;99527.78;5074583;27;50986;-47
2022/02/14 03:33:14;;;;;;;;;1.00;1.00;;;;;20.09;35.76;99544.28;5074545;27;51055;-45
2022/02/14 03:35:40;;;;;;;;;2.00;2.00;;;;;20.08;35.92;99526.97;5074664;28;51105;-44
2022/02/14 03:38:06;;;;;;;;;2.00;2.00;;;;;20.08;35.78;99540.69;5074376;27;51880;-43
2022/02/14 03:40:36;;;;;;;;;1.50;1.00;;;;;20.08;35.89;99539.88;5074446;27;51281;-45
2022/02/14 03:43:02;;;;;;;;;1.75;1.75;;;;;20.07;35.96;99563.78;5074403;27;51531;-46
2022/02/14 03:45:29;;;;;;;;;1.00;1.00;;;;;20.07;35.71;99552.78;5076033;27;51152;-45
2022/02/14 03:47:55;;;;;;;;;1.25;1.00;;;;;20.06;35.77;99559.38;5077374;27;52375;-48
2022/02/14 03:50:20;;;;;;;;;1.00;1.00;;;;;20.05;36.09;99563.19;5068018;28;51120;-48
2022/02/14 03:52:46;;;;;;;;;1.50;1.00;;;;;20.04;36.07;99569.78;5078153;27;51015;-48
2022/02/14 03:55:11;;;;;;;;;1.00;1.00;;;;;20.03;35.86;99562.63;5077491;27;51576;-47
2022/02/14 03:57:38;;;;;;;;;3.50;2.00;;;;;20.03;35.92;99570.88;5077737;27;51882;-48
2022/02/14 04:00:08;;;;;;;;;5.00;3.00;;;;;20.03;35.69;99572.78;5077477;27;51400;-47
2022/02/14 04:02:34;;;;;;;;;2.00;1.00;;;;;20.02;36.34;99579.38;5077237;27;51105;-46
2022/02/14 04:05:00;;;;;;;;;0.50;0.50;;;;;20.01;35.74;99605.16;5070138;28;50951;-48
2022/02/14 04:07:26;;;;;;;;;3.00;2.00;;;;;20.01;35.96;99628.03;5077647;28;52023;-45
2022/02/14 04:09:51;;;;;;;;;2.00;2.00;;;;;20.01;35.80;99641.75;5076996;27;51125;-48
2022/02/14 04:12:17;;;;;;;;;2.25;2.00;;;;;19.99;35.74;99646.66;5077811;27;51146;-47
2022/02/14 04:14:42;;;;;;;;;1.50;1.00;;;;;20.00;36.01;99658.47;5077915;27;51226;-48
2022/02/14 04:17:08;;;;;;;;;0.50;0.50;;;;;20.00;36.08;99662.06;5077052;27;51828;-49
2022/02/14 04:19:33;;;;;;;;;2.00;2.00;;;;;19.99;36.25;99662.31;5076188;27;51554;-46
2022/02/14 04:21:59;;;;;;;;;1.00;1.00;;;;;19.99;36.10;99660.41;5069099;27;51269;-48
2022/02/14 04:24:24;;;;;;;;;4.75;2.75;;;;;19.99;35.98;99676.88;5087015;27;51174;-49
2022/02/14 04:26:49;;;;;;;;;0.75;0.75;;;;;20.01;36.10;99679.38;5076056;27;51809;-48
2022/02/14 04:29:15;;;;;;;;;0.50;0.50;;;;;20.02;36.24;99675.59;5077288;27;51260;-46
2022/02/14 04:31:40;;;;;;;;;2.25;1.00;;;;;20.04;35.92;99688.00;5075675;27;51146;-49
2022/02/14 04:34:05;;;;;;;;;1.00;1.00;;;;;20.06;36.18;99696.00;5075377;28;51083;-44
2022/02/14 04:36:31;;;;;;;;;2.00;0.75;;;;;20.09;35.90;99692.72;5076483;27;51934;-47
2022/02/14 04:38:56;;;;;;;;;1.75;1.75;;;;;20.10;36.13;99695.22;5075371;27;51124;-49
2022/02/14 04:41:21;;;;;;;;;2.00;2.00;;;;;20.13;35.90;99714.00;5076489;27;51068;-46
2022/02/14 04:43:47;;;;;;;;;3.50;1.75;;;;;20.15;35.85;99711.00;5073998;27;51316;-44
2022/02/14 04:46:12;;;;;;;;;1.00;1.00;;;;;20.18;36.12;99716.00;5075289;27;51953;-46
2022/02/14 04:48:37;;;;;;;;;2.00;2.00;;;;;20.24;36.05;99723.28;5068564;27;51284;-45
2022/02/14 04:51:03;;;;;;;;;1.50;1.00;;;;;20.32;36.00;99720.13;5075694;27;51135;-48
2022/02/14 04:53:28;;;;;;;;;1.00;1.00;;;;;20.39;35.89;99726.28;5072941;27;51154;-46
2022/02/14 04:55:53;;;;;;;;;1.00;1.00;;;;;20.49;35.71;99736.66;5075255;27;51877;-45
2022/02/14 04:58:19;;;;;;;;;1.00;1.00;;;;;20.56;35.64;99740.09;5075716;27;50978;-50
2022/02/14 05:00:44;;;;;;;;;1.00;1.00;;;;;20.65;35.99;99741.34;5077107;27;51363;-49
2022/02/14 05:03:09;;;;;;;;;3.00;1.00;;;;;20.73;35.73;99738.16;5075251;27;51167;-45
2022/02/14 05:05:35;;;;;;;;;2.00;1.00;;;;;20.82;35.61;99744.09;5074539;27;50914;-45
2022/02/14 05:08:00;;;;;;;;;1.25;1.00;;;;;20.89;35.55;99753.00;5069990;27;52538;-51
2022/02/14 05:10:26;;;;;;;;;1.00;1.00;;;;;20.95;36.00;99751.19;5074482;27;51302;-48
2022/02/14 05:12:51;;;;;;;;;0.00;0.00;;;;;20.99;35.47;99763.34;5068413;27;52500;-45
2022/02/14 05:15:16;;;;;;;;;1.00;1.00;;;;;20.97;35.34;99762.78;5076790;27;51033;-47
2022/02/14 05:17:42;;;;;;;;;1.00;1.00;;;;;20.95;35.46;99771.28;5075344;27;50911;-48
2022/02/14 05:20:08;;;;;;;;;0.00;0.00;;;;;20.94;35.28;99785.28;5073630;27;51297;-48
2022/02/14 05:22:34;;;;;;;;;1.00;1.00;;;;;20.91;35.39;99783.88;5069977;27;51549;-44
2022/02/14 05:24:59;;;;;;;;;0.50;0.50;;;;;20.88;35.50;99780.78;5075804;27;51704;-45
2022/02/14 05:27:24;;;;;;;;;0.00;0.00;;;;;20.84;35.57;99796.13;5076716;27;51102;-50
2022/02/14 05:29:50;;;;;;;;;0.00;0.00;;;;;20.79;35.36;99794.13;5076042;27;51156;-46
2022/02/14 05:32:15;;;;;;;;;0.00;0.00;;;;;20.78;35.24;99802.66;5076387;27;51371;-44
2022/02/14 05:34:41;;;;;;;;;3.00;0.00;;;;;20.74;35.33;99808.66;5074639;28;52997;-47
2022/02/14 05:37:06;;;;;;;;;0.00;0.00;;;;;20.71;35.54;99798.13;5075992;28;51211;-50
2022/02/14 05:39:32;;;;;;;;;1.25;1.00;;;;;20.70;35.67;99814.88;5076003;27;51254;-47
2022/02/14 05:41:57;;;;;;;;;0.00;0.00;;;;;20.67;35.48;99809.88;5076552;27;51130;-46
2022/02/14 05:44:22;;;;;;;;;0.00;0.00;;;;;20.65;35.62;99820.31;5076310;27;51893;-46
2022/02/14 05:46:48;;;;;;;;;0.00;0.00;;;;;20.60;35.45;99821.03;5075665;27;51123;-49
2022/02/14 05:49:14;;;;;;;;;0.50;0.00;;;;;20.59;35.37;99833.13;5091651;27;51104;-49
2022/02/14 05:51:39;;;;;;;;;0.00;0.00;;;;;20.57;35.48;99842.72;5076181;27;51110;-46
2022/02/14 05:54:05;;;;;;;;;0.25;0.00;;;;;20.54;35.18;99844.06;5075238;27;51841;-48
2022/02/14 05:56:31;;;;;;;;;0.00;0.00;;;;;20.51;35.83;99849.19;5076259;28;50965;-46
2022/02/14 05:58:57;;;;;;;;;0.00;0.00;;;;;20.47;35.38;99846.13;5076016;27;51202;-49
2022/02/14 06:01:22;;;;;;;;;0.25;0.00;;;;;20.46;35.67;99859.03;5075421;27;51242;-45
2022/02/14 06:03:47;;;;;;;;;0.00;0.00;;;;;20.49;35.74;99859.63;5075309;27;51208;-44
2022/02/14 06:06:13;;;;;;;;;0.00;0.00;;;;;20.55;35.49;99862.22;5074933;27;51139;-46
2022/02/14 06:08:38;;;;;;;;;0.00;0.00;;;;;20.61;35.44;99868.66;5075337;27;51145;-46
2022/02/14 06:11:03;;;;;;;;;0.00;0.00;;;;;20.69;35.78;99873.75;5076053;27;51254;-48
2022/02/14 06:13:30;;;;;;;;;1.00;0.00;;;;;20.75;35.41;99881.88;5075630;27;51120;-44
2022/02/14 06:15:55;;;;;;;;;0.00;0.00;;;;;20.84;35.12;99882.31;5075867;27;51422;-47
2022/02/14 06:18:21;;;;;;;;;0.00;0.00;;;;;20.92;35.23;99894.81;5074163;28;51464;-47
2022/02/14 06:20:46;;;;;;;;;0.25;0.00;;;;;20.99;34.97;99898.25;5076155;27;51122;-45
2022/02/14 06:23:11;;;;;;;;;0.00;0.00;;;;;21.02;34.88;99906.00;5075372;27;52647;-47
2022/02/14 06:25:37;;;;;;;;;0.00;0.00;;;;;21.03;35.03;99910.44;5076036;27;51375;-44
2022/02/14 06:28:03;;;;;;;;;0.00;0.00;;;;;21.03;35.21;99910.44;5076065;27;51273;-43
2022/02/14 06:30:28;;;;;;;;;0.00;0.00;;;;;21.03;34.78;99919.53;5075419;27;51635;-45
2022/02/14 06:32:54;;;;;;;;;0.00;0.00;;;;;21.03;34.88;99924.19;5075442;27;51789;-44
2022/02/14 06:35:21;;;;;;;;;1.00;1.00;;;;;21.06;34.99;99928.41;5075103;27;51113;-44
2022/02/14 06:37:47;;;;;;;;;0.00;0.00;;;;;21.08;35.37;99929.81;5075734;27;51150;-46
2022/02/14 06:40:13;;;;;;;;;0.00;0.00;;;;;21.10;34.92;99927.63;5074359;27;51025;-44
2022/02/14 06:42:39;;;;;;;;;0.00;0.00;;;;;21.13;34.98;99929.06;5074290;27;53189;-47
2022/02/14 06:45:05;;;;;;;;;0.50;0.00;;;;;21.14;35.35;99922.47;5075078;27;51226;-43
2022/02/14 06:47:30;;;;;;;;;0.50;0.00;;;;;21.15;35.55;99929.63;5075436;27;51336;-46
2022/02/14 06:49:55;;;;;;;;;0.00;0.00;;;;;21.14;35.22;99931.56;5075247;27;51066;-44
2022/02/14 06:52:21;;;;;;;;;0.00;0.00;;;;;21.11;35.29;99929.31;5090136;27;52971;-49
2022/02/14 06:54:46;;;;;;;;;0.00;0.00;;;;;21.11;35.29;99934.81;5074881;27;50954;-45
2022/02/14 06:57:12;;;;;;;;;0.50;0.00;;;;;21.13;35.58;99935.41;5074954;27;51184;-44
2022/02/14 06:59:37;;;;;;;;;0.00;0.00;;;;;21.16;35.16;99947.84;5075430;27;51222;-47
2022/02/14 07:02:03;;;;;;;;;0.00;0.00;;;;;21.16;35.16;99945.09;5074144;27;51924;-48
2022/02/14 07:04:28;;;;;;;;;0.00;0.00;;;;;21.15;35.34;99955.25;5074678;27;50996;-45
2022/02/14 07:06:53;;;;;;;;;0.00;0.00;;;;;21.15;35.02;99955.25;5075123;27;51135;-47
2022/02/14 07:09:19;;;;;;;;;0.00;0.00;;;;;21.14;35.05;99964.59;5075089;27;51108;-50
2022/02/14 07:11:45;;;;;;;;;0.00;0.00;;;;;21.10;34.98;99965.34;5075072;27;51051;-44
2022/02/14 07:14:11;;;;;;;;;0.25;0.00;;;;;21.08;35.11;99971.13;5074895;27;50957;-44
2022/02/14 07:16:36;;;;;;;;;0.00;0.00;;;;;21.09;34.76;99972.78;5073983;28;51144;-46
2022/02/14 07:19:02;;;;;;;;;0.00;0.00;;;;;21.10;35.34;99985.47;5074218;27;51243;-45
2022/02/14 07:21:28;;;;;;;;;0.25;0.25;;;;;21.10;35.11;99982.72;5076589;27;52013;-48
2022/02/14 07:23:54;;;;;;;;;0.75;0.75;;;;;21.10;35.27;99979.13;5077588;27;51139;-46
2022/02/14 07:26:20;;;;;;;;;0.00;0.00;;;;;21.10;35.53;99987.38;5078206;27;51183;-47
2022/02/14 07:28:45;;;;;;;;;0.00;0.00;;;;;21.08;35.47;99992.31;5077973;27;51112;-46
2022/02/14 07:31:11;;;;;;;;;0.00;0.00;;;;;21.07;35.58;100002.50;5077616;27;51041;-45
2022/02/14 07:33:36;;;;;;;;;0.75;0.25;;;;;21.08;35.50;99998.66;5093193;27;51071;-49
2022/02/14 07:36:03;;;;;;;;;0.00;0.00;;;;;21.12;35.93;100004.50;5078148;27;51190;-49
2022/02/14 07:38:28;;;;;;;;;0.00;0.00;;;;;21.14;35.92;100003.16;5077686;27;51337;-46
2022/02/14 07:40:53;;;;;;;;;0.00;0.00;;;;;21.15;35.66;100012.25;5076856;27;51107;-46
2022/02/14 07:43:19;;;;;;;;;0.25;0.25;;;;;21.12;35.62;100010.00;5092738;27;51123;-47
2022/02/14 07:45:44;;;;;;;;;0.75;0.75;;;;;21.12;36.19;100001.75;5078526;27;50989;-44
2022/02/14 07:48:09;;;;;;;;;0.00;0.00;;;;;21.14;36.11;100013.34;5078476;27;51212;-49
2022/02/14 07:50:35;;;;;;;;;0.00;0.00;;;;;21.12;36.09;100023.78;5093438;27;52898;-47
2022/02/14 07:53:01;;;;;;;;;0.25;0.25;;;;;21.12;36.35;100018.25;5078210;27;50984;-47
2022/02/14 07:55:26;;;;;;;;;1.00;1.00;;;;;21.13;35.92;100023.53;5077649;27;51091;-46
2022/02/14 07:57:52;;;;;;;;;1.75;0.75;;;;;21.14;35.97;100027.94;5078162;27;51335;-47
2022/02/14 08:00:17;;;;;;;;;1.00;0.00;;;;;21.14;36.03;100038.97;5078103;27;51966;-48
2022/02/14 08:02:42;;;;;;;;;1.50;1.00;;;;;21.14;35.86;100032.63;5077843;27;51064;-45
2022/02/14 08:05:09;;;;;;;;;2.00;1.50;;;;;21.14;35.90;100032.63;5077869;27;51013;-44
2022/02/14 08:07:34;;;;;;;;;3.50;2.25;;;;;21.12;35.81;100040.28;5077987;27;51008;-46
2022/02/14 08:10:00;;;;;;;;;3.50;1.25;;;;;21.09;35.64;100041.63;5077718;27;51692;-44
2022/02/14 08:12:25;;;;;;;;;2.25;2.00;;;;;21.05;35.50;100037.72;5077814;27;51119;-45
2022/02/14 08:14:52;;;;;;;;;2.25;1.75;;;;;21.02;35.76;100049.19;5077819;27;51020;-48
2022/02/14 08:17:17;;;;;;;;;2.00;1.00;;;;;20.98;35.40;100046.09;5078194;27;51089;-46
2022/02/14 08:19:43;;;;;;;;;2.75;2.25;;;;;20.95;35.79;100051.28;5077420;28;51904;-46
2022/02/14 08:22:08;;;;;;;;;1.25;1.00;;;;;20.93;35.55;100062.50;5077779;27;51014;-46
2022/02/14 08:24:34;;;;;;;;;3.00;2.00;;;;;20.90;35.72;100059.41;5077890;27;50966;-46
2022/02/14 08:26:59;;;;;;;;;1.00;1.00;;;;;20.87;35.68;100068.16;5077786;27;51176;-46
2022/02/14 08:29:26;;;;;;;;;3.00;1.00;;;;;20.84;35.52;100075.00;5077575;27;52659;-46
2022/02/14 08:31:52;;;;;;;;;1.50;1.50;;;;;20.82;35.33;100073.53;5076403;27;51244;-49
2022/02/14 08:34:18;;;;;;;;;4.00;1.00;;;;;20.79;35.34;100082.31;5077579;27;51287;-45
2022/02/14 08:36:43;;;;;;;;;3.25;3.00;;;;;20.75;35.63;100088.28;5077893;27;50937;-50
2022/02/14 08:39:09;;;;;;;;;2.25;1.50;;;;;20.73;35.50;100079.41;5077272;27;51649;-46
2022/02/14 08:41:35;;;;;;;;;1.50;1.00;;;;;20.71;35.54;100094.50;5077620;27;51122;-49
2022/02/14 08:44:01;;;;;;;;;3.00;1.75;;;;;20.69;35.18;100088.41;5093013;27;51152;-47
2022/02/14 08:46:27;;;;;;;;;3.50;1.00;;;;;20.66;35.51;100094.41;5077320;27;51109;-47
2022/02/14 08:48:53;;;;;;;;;1.00;1.00;;;;;20.64;35.65;100097.41;5077093;27;52996;-48
2022/02/14 08:51:19;;;;;;;;;1.25;1.25;;;;;20.62;35.60;100099.53;5076952;27;51009;-44
2022/02/14 08:53:50;;;;;;;;;1.00;1.00;;;;;20.60;35.09;100096.19;5076010;28;51124;-45
2022/02/14 08:56:16;;;;;;;;;0.75;0.75;;;;;20.58;35.22;100087.34;5077527;27;51143;-45
2022/02/14 08:58:42;;;;;;;;;2.50;0.50;;;;;20.58;35.27;100098.38;5076712;28;51070;-48
2022/02/14 09:01:09;;;;;;;;;1.25;0.00;;;;;20.55;35.71;100087.00;5092556;27;51166;-43
2022/02/14 09:03:35;;;;;;;;;3.25;1.00;;;;;20.54;35.75;100091.69;5076918;27;51209;-48
2022/02/14 09:06:01;;;;;;;;;2.00;2.00;;;;;20.54;35.50;100093.59;5077554;27;51133;-49
2022/02/14 09:08:27;;;;;;;;;1.00;1.00;;;;;20.52;35.36;100088.31;5077093;28;52556;-45
2022/02/14 09:10:52;;;;;;;;;1.25;1.25;;;;;20.51;35.31;100091.31;5077072;27;51063;-47
2022/02/14 09:13:18;;;;;;;;;2.00;1.00;;;;;20.49;35.46;100091.53;5076947;27;50981;-44
2022/02/14 09:15:44;;;;;;;;;1.00;0.25;;;;;20.46;35.54;100101.13;5077497;27;51152;-45
2022/02/14 09:18:09;;;;;;;;;0.25;0.25;;;;;20.46;35.25;100092.88;5076409;27;51029;-45
2022/02/14 09:20:36;;;;;;;;;0.25;0.25;;;;;20.44;35.72;100088.69;5076453;27;50973;-48
2022/02/14 09:23:01;;;;;;;;;2.00;1.00;;;;;20.42;35.51;100099.03;5076516;27;51038;-45
2022/02/14 09:25:27;;;;;;;;;1.75;1.75;;;;;20.42;35.67;100101.78;5076937;27;51179;-48
2022/02/14 09:27:52;;;;;;;;;0.00;0.00;;;;;20.40;35.54;100096.53;5076872;27;51853;-46
2022/02/14 09:30:18;;;;;;;;;1.75;1.00;;;;;20.39;35.56;100100.38;5076493;27;51127;-45
2022/02/14 09:32:44;;;;;;;;;0.00;0.00;;;;;20.38;35.37;100106.13;5076958;27;51131;-45
2022/02/14 09:35:10;;;;;;;;;2.25;1.50;;;;;20.37;35.48;100107.19;5076230;28;50943;-45
2022/02/14 09:37:35;;;;;;;;;1.00;1.00;;;;;20.34;35.34;100108.50;5075931;27;51821;-48
2022/02/14 09:40:03;;;;;;;;;0.25;0.00;;;;;20.34;35.79;100100.25;5076136;28;50967;-46
2022/02/14 09:42:28;;;;;;;;;1.00;1.00;;;;;20.32;35.34;100110.69;5075534;27;51175;-49
2022/02/14 09:44:54;;;;;;;;;0.25;0.25;;;;;20.32;35.37;100112.56;5076535;27;51075;-48
2022/02/14 09:47:25;;;;;;;;;1.00;1.00;;;;;20.30;35.34;100112.81;5076031;27;50996;-46
2022/02/14 09:49:53;;;;;;;;;1.00;1.00;;;;;20.30;35.34;100117.47;5075997;27;51075;-47
2022/02/14 09:52:18;;;;;;;;;2.00;2.00;;;;;20.28;35.27;100117.72;5076252;27;51153;-49
2022/02/14 09:54:44;;;;;;;;;2.00;0.25;;;;;20.27;35.39;100124.28;5076446;27;51293;-47
2022/02/14 09:57:11;;;;;;;;;0.00;0.00;;;;;20.26;35.55;100132.78;5075821;27;50938;-48
2022/02/14 09:59:37;;;;;;;;;1.25;1.25;;;;;20.25;35.72;100131.09;5075807;27;51215;-45
2022/02/14 10:02:18;;;;;;;;;0.75;0.75;;;;;20.24;35.45;100137.69;5076030;27;51097;-46
2022/02/14 10:05:03;;;;;;;;;0.00;0.00;;;;;20.24;35.28;100145.94;5076068;27;50996;-47
2022/02/14 10:07:48;;;;;;;;;1.00;1.00;;;;;20.21;35.30;100138.97;5075637;27;51998;-45
2022/02/14 10:10:18;;;;;;;;;2.00;1.00;;;;;20.22;35.45;100137.94;5076270;27;51101;-48
2022/02/14 10:12:49;;;;;;;;;1.00;1.00;;;;;20.22;35.25;100137.06;5076153;27;51082;-48
2022/02/14 10:15:16;;;;;;;;;0.50;0.50;;;;;20.21;35.35;100138.97;5076067;27;51154;-49
2022/02/14 10:17:45;;;;;;;;;0.00;0.00;;;;;20.21;35.63;100141.72;5075712;28;51896;-47
2022/02/14 10:20:11;;;;;;;;;2.00;0.75;;;;;20.22;35.44;100139.81;5075404;27;50981;-45
2022/02/14 10:23:13;;;;;;;;;2.50;1.00;;;;;20.22;35.26;100142.56;5075585;27;51224;-48
2022/02/14 10:25:44;;;;;;;;;1.00;1.00;;;;;20.24;35.17;100145.94;5076129;27;50959;-45
2022/02/14 10:28:29;;;;;;;;;0.00;0.00;;;;;20.24;35.26;100145.94;5075774;27;50982;-46
2022/02/14 10:31:05;;;;;;;;;1.25;0.50;;;;;20.23;35.40;100156.09;5055379;28;51057;-48
2022/02/14 10:33:55;;;;;;;;;1.00;1.00;;;;;20.23;35.41;100163.53;5055266;28;51068;-45
2022/02/14 10:36:31;;;;;;;;;1.00;0.75;;;;;20.24;35.57;100165.19;5055514;27;51281;-47
2022/02/14 10:39:25;;;;;;;;;2.25;1.00;;;;;20.22;35.19;100168.19;5055523;28;51828;-49
2022/02/14 10:42:00;;;;;;;;;1.00;1.00;;;;;20.21;35.36;100163.72;5054306;27;51107;-44
2022/02/14 10:47:19;;;;;;;;;0.00;0.00;;;;;20.22;35.49;100173.69;5055570;28;50971;-45
2022/02/14 10:49:55;;;;;;;;;0.00;0.00;;;;;20.22;35.42;100168.19;5054671;28;51835;-44
2022/02/14 10:52:21;;;;;;;;;1.50;1.50;;;;;20.24;35.35;100159.69;5055064;28;51092;-46
2022/02/14 10:54:46;;;;;;;;;1.25;1.00;;;;;20.26;35.31;100163.03;5055186;28;51095;-44
2022/02/14 10:57:27;;;;;;;;;1.50;1.00;;;;;20.28;35.13;100166.38;5058770;28;51064;-46
2022/02/14 11:00:16;;;;;;;;;1.00;1.00;;;;;20.27;35.26;100171.03;5058257;28;51060;-44
2022/02/14 11:02:45;;;;;;;;;0.25;0.25;;;;;20.27;34.92;100160.03;5055322;28;50943;-51
2022/02/14 11:05:12;;;;;;;;;1.00;1.00;;;;;20.28;35.13;100158.13;5058534;28;50988;-44
2022/02/14 11:07:39;;;;;;;;;3.00;1.00;;;;;20.27;35.18;100157.28;5058981;28;51025;-46
2022/02/14 11:10:09;;;;;;;;;2.00;1.25;;;;;20.28;35.12;100161.72;5058420;28;51676;-45
2022/02/14 11:12:39;;;;;;;;;0.50;0.50;;;;;20.28;35.32;100147.97;5058673;28;51325;-45
2022/02/14 11:15:07;;;;;;;;;1.25;1.25;;;;;20.29;35.18;100143.28;5058375;28;50990;-46
2022/02/14 11:17:35;;;;;;;;;2.00;2.00;;;;;20.30;35.41;100147.72;5058506;28;50947;-44
2022/02/14 11:20:05;;;;;;;;;1.00;1.00;;;;;20.29;35.09;100143.28;5057683;28;51084;-44
2022/02/14 11:22:36;;;;;;;;;0.25;0.25;;;;;20.31;35.10;100139.22;5058249;28;51262;-45
2022/02/14 11:25:29;;;;;;;;;0.00;0.00;;;;;20.32;34.83;100131.81;5058226;28;51025;-44
2022/02/14 11:27:57;;;;;;;;;0.25;0.25;;;;;20.33;34.86;100141.78;5058425;28;51937;-47
2022/02/14 11:30:27;;;;;;;;;0.50;0.50;;;;;20.33;34.99;100136.25;5073892;27;51895;-45
2022/02/14 11:33:23;;;;;;;;;0.00;0.00;;;;;20.32;35.17;100131.81;5078079;27;51071;-51